Time;durP1;ratioP1;P1;durP2;ratioP2;P2;SDS_P1;SDS_P2;PMS_P1;PMS_P2;Temp;Humidity;BMP_temperature;BMP_pressure;BME280_temperature;BME280_humidity;BME280_pressure;Samples;Min_cycle;Max_cycle;Signal;HPM_P1;HPM_P2
2022/07/13 00:01:00;;;;;;;0.30;0.30;;;15.50;1.00;;;;;;5033290;28;20184;-77
2022/07/13 00:03:26;;;;;;;0.30;0.30;;;15.40;1.00;;;;;;5032216;28;20196;-77
2022/07/13 00:05:51;;;;;;;0.30;0.30;;;15.40;1.00;;;;;;5033576;28;20230;-77
2022/07/13 00:08:17;;;;;;;0.30;0.30;;;15.40;1.00;;;;;;5033518;28;20665;-77
2022/07/13 00:10:42;;;;;;;0.30;0.30;;;15.40;1.00;;;;;;5032909;28;20543;-77
2022/07/13 00:13:08;;;;;;;0.30;0.30;;;15.40;1.00;;;;;;5046003;28;20227;-77
2022/07/13 00:15:33;;;;;;;0.30;0.30;;;15.30;1.00;;;;;;5053183;28;20742;-77
2022/07/13 00:17:59;;;;;;;0.40;0.40;;;15.30;1.00;;;;;;5053075;28;20277;-77
2022/07/13 00:20:27;;;;;;;0.30;0.30;;;15.20;1.00;;;;;;5052483;28;20172;-76
2022/07/13 00:22:53;;;;;;;0.30;0.30;;;15.20;1.00;;;;;;5039859;28;20257;-77
2022/07/13 00:25:18;;;;;;;0.40;0.40;;;15.20;1.00;;;;;;5032752;28;20653;-76
2022/07/13 00:27:44;;;;;;;0.40;0.40;;;15.20;1.00;;;;;;5033145;28;20219;-77
2022/07/13 00:30:10;;;;;;;0.30;0.30;;;15.10;1.00;;;;;;5032514;28;20728;-77
2022/07/13 00:32:36;;;;;;;0.30;0.30;;;15.10;1.00;;;;;;5031131;28;20199;-77
2022/07/13 00:35:01;;;;;;;0.30;0.30;;;15.00;1.00;;;;;;5032754;28;20191;-76
2022/07/13 00:37:27;;;;;;;0.30;0.30;;;15.00;1.00;;;;;;5032812;28;20228;-77
2022/07/13 00:39:52;;;;;;;0.30;0.30;;;15.00;1.00;;;;;;5031995;28;20519;-77
2022/07/13 00:42:18;;;;;;;0.30;0.30;;;15.00;1.00;;;;;;5031207;28;20270;-77
2022/07/13 00:44:43;;;;;;;0.33;0.33;;;15.00;1.00;;;;;;5031475;28;20187;-76
2022/07/13 00:47:10;;;;;;;0.30;0.30;;;15.00;1.00;;;;;;5036058;28;20203;-77
2022/07/13 00:49:36;;;;;;;0.40;0.40;;;14.90;1.00;;;;;;5049420;28;20179;-76
2022/07/13 00:52:02;;;;;;;0.40;0.40;;;14.90;1.00;;;;;;5050347;28;20199;-77
2022/07/13 00:54:29;;;;;;;0.30;0.30;;;14.80;1.00;;;;;;5052215;28;20237;-76
2022/07/13 00:56:57;;;;;;;0.50;0.50;;;14.70;1.00;;;;;;5052497;28;20179;-76
2022/07/13 00:59:24;;;;;;;0.40;0.40;;;14.80;1.00;;;;;;5051713;28;20205;-77
2022/07/13 01:01:49;;;;;;;0.40;0.40;;;14.80;1.00;;;;;;5049665;28;20274;-77
2022/07/13 01:04:15;;;;;;;0.30;0.30;;;14.80;1.00;;;;;;5052051;28;20637;-77
2022/07/13 01:06:41;;;;;;;0.40;0.40;;;14.80;1.00;;;;;;5052268;28;20211;-77
2022/07/13 01:09:06;;;;;;;0.40;0.40;;;14.70;1.00;;;;;;5051797;28;20217;-76
2022/07/13 01:11:32;;;;;;;0.30;0.30;;;14.60;1.00;;;;;;5050669;28;20172;-77
2022/07/13 01:13:59;;;;;;;0.33;0.33;;;14.50;1.00;;;;;;5031749;28;20566;-76
2022/07/13 01:16:25;;;;;;;0.30;0.30;;;14.50;1.00;;;;;;5031936;28;20633;-76
2022/07/13 01:18:51;;;;;;;0.30;0.30;;;14.50;1.00;;;;;;5031505;28;20223;-76
2022/07/13 01:21:18;;;;;;;0.40;0.40;;;14.50;1.00;;;;;;5031371;28;20176;-77
2022/07/13 01:23:44;;;;;;;0.33;0.33;;;14.50;1.00;;;;;;5048090;28;20233;-76
2022/07/13 01:26:10;;;;;;;0.30;0.30;;;14.40;1.00;;;;;;5051757;28;20252;-77
2022/07/13 01:28:36;;;;;;;0.40;0.40;;;14.40;1.00;;;;;;5051496;28;20634;-77
2022/07/13 01:31:02;;;;;;;0.30;0.30;;;14.40;1.00;;;;;;5051188;28;20203;-77
2022/07/13 01:33:27;;;;;;;0.40;0.40;;;14.40;1.00;;;;;;5033659;28;20214;-76
2022/07/13 01:35:55;;;;;;;0.33;0.33;;;14.30;1.00;;;;;;5031722;28;20175;-76
2022/07/13 01:38:21;;;;;;;0.30;0.30;;;14.30;1.00;;;;;;5031799;28;20184;-76
2022/07/13 01:40:46;;;;;;;0.40;0.40;;;14.30;1.00;;;;;;5031277;28;20176;-77
2022/07/13 01:43:12;;;;;;;0.30;0.30;;;14.20;1.00;;;;;;5030288;28;20202;-77
2022/07/13 01:45:38;;;;;;;0.40;0.40;;;14.20;1.00;;;;;;5031650;28;20201;-77
2022/07/13 01:48:03;;;;;;;0.30;0.30;;;14.20;1.00;;;;;;5031419;28;20218;-77
2022/07/13 01:50:29;;;;;;;0.30;0.30;;;14.20;1.00;;;;;;5030794;28;20168;-77
2022/07/13 01:52:55;;;;;;;0.33;0.33;;;14.30;1.00;;;;;;5041357;28;20245;-77
2022/07/13 01:55:21;;;;;;;0.37;0.37;;;14.30;1.00;;;;;;5051319;28;20210;-77
2022/07/13 01:57:46;;;;;;;0.40;0.40;;;14.20;1.00;;;;;;5051627;28;20197;-77
2022/07/13 02:00:20;;;;;;;0.30;0.30;;;14.30;1.00;;;;;;5051132;28;20175;-77
2022/07/13 02:02:47;;;;;;;0.40;0.40;;;14.30;1.00;;;;;;5039178;28;20673;-76
2022/07/13 02:05:13;;;;;;;0.30;0.30;;;14.30;1.00;;;;;;5031271;28;20318;-77
2022/07/13 02:07:39;;;;;;;0.40;0.40;;;14.30;1.00;;;;;;5031225;28;20310;-76
2022/07/13 02:10:07;;;;;;;0.40;0.40;;;14.30;1.00;;;;;;5030931;28;20172;-75
2022/07/13 02:12:33;;;;;;;0.30;0.30;;;14.30;1.00;;;;;;5029843;28;20206;-76
2022/07/13 02:14:59;;;;;;;0.40;0.40;;;14.30;1.00;;;;;;5031048;28;20175;-77
2022/07/13 02:17:24;;;;;;;0.40;0.40;;;14.30;1.00;;;;;;5031168;28;20183;-77
2022/07/13 02:19:50;;;;;;;0.30;0.30;;;14.20;1.00;;;;;;5030715;28;20180;-77
2022/07/13 02:22:16;;;;;;;0.40;0.40;;;14.10;1.00;;;;;;5030107;28;20516;-77
2022/07/13 02:24:41;;;;;;;0.30;0.30;;;14.10;1.00;;;;;;5031294;28;20176;-77
2022/07/13 02:27:07;;;;;;;0.40;0.40;;;14.20;1.00;;;;;;5031408;28;20258;-77
2022/07/13 02:29:32;;;;;;;0.53;0.53;;;14.20;1.00;;;;;;5030868;28;20176;-76
2022/07/13 02:31:58;;;;;;;0.40;0.40;;;14.20;1.00;;;;;;5030014;28;20204;-77
2022/07/13 02:34:27;;;;;;;0.30;0.30;;;14.20;1.00;;;;;;5033748;28;20625;-77
2022/07/13 02:36:53;;;;;;;0.43;0.43;;;14.20;1.00;;;;;;5035064;28;20187;-77
2022/07/13 02:39:19;;;;;;;0.30;0.30;;;14.30;1.00;;;;;;5034357;28;20637;-76
2022/07/13 02:41:44;;;;;;;0.40;0.40;;;14.30;1.00;;;;;;5033517;28;20207;-77
2022/07/13 02:44:10;;;;;;;0.30;0.30;;;14.30;2.90;;;;;;5034718;28;20187;-76
2022/07/13 02:46:35;;;;;;;0.47;0.47;;;14.20;1.00;;;;;;5034832;28;20200;-77
2022/07/13 02:49:01;;;;;;;0.40;0.40;;;14.30;1.00;;;;;;5034062;28;20211;-77
2022/07/13 02:51:26;;;;;;;0.40;0.40;;;14.30;1.00;;;;;;5034564;28;20644;-76
2022/07/13 02:53:52;;;;;;;0.30;0.30;;;14.20;1.00;;;;;;5052889;28;20228;-77
2022/07/13 02:56:17;;;;;;;0.30;0.30;;;14.10;1.00;;;;;;5054585;28;20259;-76
2022/07/13 02:58:43;;;;;;;0.50;0.50;;;14.10;14.00;;;;;;5054588;28;20179;-77
2022/07/13 03:01:08;;;;;;;0.40;0.40;;;14.10;11.00;;;;;;5054027;28;20183;-76
2022/07/13 03:03:34;;;;;;;0.30;0.30;;;14.20;25.60;;;;;;5052418;28;20195;-77
2022/07/13 03:06:01;;;;;;;0.30;0.30;;;14.20;49.20;;;;;;5054423;28;20181;-76
2022/07/13 03:08:26;;;;;;;0.40;0.40;;;14.20;55.10;;;;;;5054418;28;20549;-77
2022/07/13 03:10:52;;;;;;;0.50;0.50;;;14.20;41.60;;;;;;5053937;28;20706;-77
2022/07/13 03:13:17;;;;;;;0.40;0.40;;;14.20;28.00;;;;;;5052366;28;20900;-78
2022/07/13 03:15:43;;;;;;;0.40;0.40;;;14.30;14.50;;;;;;5054307;28;20171;-76
2022/07/13 03:18:09;;;;;;;0.40;0.40;;;14.30;3.80;;;;;;5053966;28;20194;-77
2022/07/13 03:20:34;;;;;;;0.40;0.40;;;14.30;1.60;;;;;;5053822;28;20183;-77
2022/07/13 03:23:00;;;;;;;0.37;0.37;;;14.30;1.00;;;;;;5050928;28;20813;-77
2022/07/13 03:25:26;;;;;;;0.30;0.30;;;14.20;1.00;;;;;;5054012;28;20181;-77
2022/07/13 03:27:51;;;;;;;0.50;0.50;;;14.10;1.00;;;;;;5053845;28;20215;-77
2022/07/13 03:30:17;;;;;;;0.40;0.40;;;14.10;1.00;;;;;;5053374;28;20203;-77
2022/07/13 03:32:42;;;;;;;0.40;0.40;;;14.00;13.60;;;;;;5041903;28;20665;-77
2022/07/13 03:35:08;;;;;;;0.60;0.60;;;14.00;50.00;;;;;;5033496;28;20191;-76
2022/07/13 03:37:33;;;;;;;0.40;0.40;;;14.00;34.10;;;;;;5033996;28;20180;-76
2022/07/13 03:39:59;;;;;;;0.33;0.33;;;13.90;19.50;;;;;;5033029;28;20604;-76
2022/07/13 03:42:24;;;;;;;0.40;0.40;;;13.90;13.90;;;;;;5032699;28;20253;-76
2022/07/13 03:44:50;;;;;;;0.40;0.40;;;13.90;14.10;;;;;;5032929;28;20258;-77
2022/07/13 03:47:15;;;;;;;0.40;0.40;;;13.90;27.70;;;;;;5033571;28;20211;-77
2022/07/13 03:49:41;;;;;;;0.40;0.40;;;14.00;37.80;;;;;;5032959;28;20179;-77
2022/07/13 03:52:06;;;;;;;0.40;0.40;;;13.90;15.80;;;;;;5037160;28;20287;-77
2022/07/13 03:54:32;;;;;;;0.40;0.40;;;13.90;14.80;;;;;;5053720;28;20521;-76
2022/07/13 03:56:58;;;;;;;0.40;0.40;;;14.00;16.40;;;;;;5053292;28;20591;-76
2022/07/13 03:59:23;;;;;;;0.40;0.40;;;14.00;27.30;;;;;;5052827;28;20179;-77
2022/07/13 04:01:49;;;;;;;0.30;0.30;;;14.00;30.00;;;;;;5039119;28;20218;-76
2022/07/13 04:04:14;;;;;;;0.40;0.40;;;14.00;30.70;;;;;;5041101;28;20180;-77
2022/07/13 04:06:40;;;;;;;0.40;0.40;;;14.00;6.80;;;;;;5051538;28;20178;-77
2022/07/13 04:09:05;;;;;;;0.40;0.40;;;13.80;20.80;;;;;;5052892;28;20210;-77
2022/07/13 04:11:31;;;;;;;0.40;0.40;;;13.80;39.10;;;;;;5051825;28;20175;-75
2022/07/13 04:13:56;;;;;;;0.40;0.40;;;13.80;78.50;;;;;;5052721;28;20193;-77
2022/07/13 04:16:22;;;;;;;0.30;0.30;;;13.80;97.10;;;;;;5053920;28;20724;-77
2022/07/13 04:18:47;;;;;;;0.37;0.37;;;13.80;97.00;;;;;;5052820;28;20198;-75
2022/07/13 04:21:14;;;;;;;0.30;0.30;;;14.00;84.60;;;;;;5052692;28;20563;-76
2022/07/13 04:23:40;;;;;;;0.40;0.40;;;14.10;62.10;;;;;;5033698;28;20283;-76
2022/07/13 04:26:06;;;;;;;0.40;0.40;;;14.20;55.80;;;;;;5033045;28;20187;-76
2022/07/13 04:28:31;;;;;;;0.40;0.40;;;14.20;49.40;;;;;;5033102;28;20207;-75
2022/07/13 04:30:57;;;;;;;0.40;0.40;;;14.30;50.10;;;;;;5032253;28;20172;-77
2022/07/13 04:33:23;;;;;;;0.30;0.30;;;14.20;6.80;;;;;;5046153;28;20289;-76
2022/07/13 04:35:49;;;;;;;0.43;0.43;;;14.00;35.60;;;;;;5052806;28;20182;-76
2022/07/13 04:38:14;;;;;;;0.30;0.30;;;13.80;99.90;;;;;;5052572;28;20270;-76
2022/07/13 04:40:40;;;;;;;0.30;0.30;;;13.80;99.90;;;;;;5052050;28;20168;-76
2022/07/13 04:43:06;;;;;;;0.33;0.33;;;14.10;99.90;;;;;;5044998;28;20210;-76
2022/07/13 04:45:32;;;;;;;0.40;0.40;;;14.40;99.90;;;;;;5034918;28;20672;-76
2022/07/13 04:47:58;;;;;;;0.40;0.40;;;14.70;99.90;;;;;;5032702;28;20207;-76
2022/07/13 04:50:24;;;;;;;0.30;0.30;;;14.80;99.60;;;;;;5032172;28;20183;-75
2022/07/13 04:52:50;;;;;;;0.40;0.40;;;14.90;93.10;;;;;;5040276;28;20737;-76
2022/07/13 04:55:16;;;;;;;0.33;0.33;;;14.80;89.40;;;;;;5052209;28;20168;-76
2022/07/13 04:57:41;;;;;;;0.40;0.40;;;14.80;87.40;;;;;;5051206;28;20187;-75
2022/07/13 05:00:08;;;;;;;0.30;0.30;;;14.90;95.40;;;;;;5051775;28;20163;-76
2022/07/13 05:02:34;;;;;;;0.40;0.40;;;15.10;88.40;;;;;;5050045;28;20210;-76
2022/07/13 05:05:00;;;;;;;0.30;0.30;;;15.40;14.10;;;;;;5052247;28;20171;-75
2022/07/13 05:07:26;;;;;;;0.30;0.30;;;15.70;1.00;;;;;;5052321;28;20742;-75
2022/07/13 05:09:51;;;;;;;0.30;0.30;;;15.90;1.00;;;;;;5051480;28;20179;-76
2022/07/13 05:12:17;;;;;;;0.30;0.30;;;16.10;1.00;;;;;;5043567;28;20246;-76
2022/07/13 05:14:42;;;;;;;0.30;0.30;;;16.20;1.00;;;;;;5031821;28;20176;-76
2022/07/13 05:17:08;;;;;;;0.30;0.30;;;16.20;1.00;;;;;;5031768;28;20507;-75
2022/07/13 05:19:34;;;;;;;0.30;0.30;;;16.20;1.00;;;;;;5031423;28;20203;-76
2022/07/13 05:21:59;;;;;;;0.30;0.30;;;16.20;1.00;;;;;;5030880;28;20251;-76
2022/07/13 05:24:25;;;;;;;0.30;0.30;;;16.10;1.00;;;;;;5031719;28;20210;-76
2022/07/13 05:26:51;;;;;;;0.30;0.30;;;16.10;1.00;;;;;;5031639;28;20634;-76
2022/07/13 05:29:16;;;;;;;0.30;0.30;;;16.30;1.00;;;;;;5030969;28;20257;-76
2022/07/13 05:31:42;;;;;;;0.37;0.37;;;16.30;1.00;;;;;;5030061;28;20168;-75
2022/07/13 05:34:07;;;;;;;0.30;0.30;;;16.20;1.00;;;;;;5031511;28;20550;-76
2022/07/13 05:36:33;;;;;;;0.30;0.30;;;16.10;1.00;;;;;;5055448;23;21227;-81
2022/07/13 05:38:59;;;;;;;0.37;0.37;;;16.10;1.00;;;;;;5035462;28;20215;-81
2022/07/13 05:41:25;;;;;;;0.30;0.30;;;16.20;1.00;;;;;;5035404;28;20258;-81
2022/07/13 05:43:50;;;;;;;0.40;0.40;;;16.40;1.00;;;;;;5034602;28;20180;-81
2022/07/13 05:46:16;;;;;;;0.30;0.30;;;16.60;1.00;;;;;;5035899;28;20548;-81
2022/07/13 05:48:41;;;;;;;0.40;0.40;;;16.90;1.00;;;;;;5035948;28;20617;-81
2022/07/13 05:51:07;;;;;;;0.33;0.33;;;16.90;1.00;;;;;;5035631;28;20274;-80
2022/07/13 05:53:32;;;;;;;0.30;0.30;;;16.80;1.00;;;;;;5034687;28;20488;-80
2022/07/13 05:55:58;;;;;;;0.40;0.40;;;16.90;1.00;;;;;;5037492;28;20610;-79
2022/07/13 05:58:24;;;;;;;0.30;0.30;;;17.10;1.00;;;;;;5034784;28;20591;-80
2022/07/13 06:00:50;;;;;;;0.30;0.30;;;17.30;1.00;;;;;;5034701;28;20180;-80
2022/07/13 06:03:15;;;;;;;0.30;0.30;;;17.30;1.00;;;;;;5033480;28;20747;-80
2022/07/13 06:05:41;;;;;;;0.30;0.30;;;17.10;1.00;;;;;;5034797;28;20179;-79
2022/07/13 06:08:06;;;;;;;0.30;0.30;;;17.00;1.00;;;;;;5035864;28;20196;-79
2022/07/13 06:10:32;;;;;;;0.30;0.30;;;17.00;1.00;;;;;;5038561;28;20182;-80
2022/07/13 06:12:57;;;;;;;0.30;0.30;;;17.10;1.00;;;;;;5039056;28;20669;-80
2022/07/13 06:15:23;;;;;;;0.30;0.30;;;17.10;1.00;;;;;;5039791;28;20293;-79
2022/07/13 06:17:48;;;;;;;0.30;0.30;;;17.20;1.00;;;;;;5041891;28;20397;-80
2022/07/13 06:20:14;;;;;;;0.30;0.30;;;17.30;1.00;;;;;;5040825;28;20179;-78
2022/07/13 06:22:39;;;;;;;0.30;0.30;;;17.50;1.00;;;;;;5041188;28;20253;-79
2022/07/13 06:25:05;;;;;;;0.30;0.30;;;17.70;1.00;;;;;;5040759;28;20186;-79
2022/07/13 06:27:31;;;;;;;0.30;0.30;;;18.00;1.00;;;;;;5040846;28;20303;-79
2022/07/13 06:29:56;;;;;;;0.30;0.30;;;18.10;99.90;;;;;;5040362;28;20176;-79
2022/07/13 06:32:22;;;;;;;0.30;0.30;;;18.10;29.90;;;;;;5040415;28;20196;-78
2022/07/13 06:34:47;;;;;;;0.30;0.30;;;18.20;99.90;;;;;;5039603;28;20179;-79
2022/07/13 06:37:13;;;;;;;0.30;0.30;;;18.50;1.00;;;;;;5037898;28;20199;-79
2022/07/13 06:39:39;;;;;;;0.33;0.33;;;18.70;99.90;;;;;;5048308;28;20180;-79
2022/07/13 06:42:04;;;;;;;0.30;0.30;;;18.80;1.00;;;;;;5058829;28;20554;-78
2022/07/13 06:44:30;;;;;;;0.40;0.40;;;18.90;1.00;;;;;;5059637;28;20175;-82
2022/07/13 06:46:59;;;;;;;0.30;0.30;;;19.00;1.00;;;;;;5058921;28;20167;-80
2022/07/13 06:49:25;;;;;;;0.30;0.30;;;19.20;99.90;;;;;;5070135;28;20499;-80
2022/07/13 06:51:50;;;;;;;0.33;0.33;;;19.40;99.90;;;;;;5080437;28;20175;-78
2022/07/13 06:54:16;;;;;;;0.30;0.30;;;19.60;1.30;;;;;;5074471;28;20194;-79
2022/07/13 06:56:41;;;;;;;0.30;0.30;;;19.80;29.30;;;;;;5067009;28;20183;-81
2022/07/13 06:59:07;;;;;;;0.30;0.30;;;20.00;1.00;;;;;;5071572;28;20178;-80
2022/07/13 07:01:32;;;;;;;0.30;0.30;;;20.10;99.90;;;;;;5067626;28;20168;-76
2022/07/13 07:03:58;;;;;;;0.30;0.30;;;20.20;1.00;;;;;;5057136;28;20175;-80
2022/07/13 07:06:23;;;;;;;0.30;0.30;;;20.30;99.90;;;;;;5057742;28;20179;-77
2022/07/13 07:08:49;;;;;;;0.30;0.30;;;20.50;1.00;;;;;;5055481;28;20211;-79
2022/07/13 07:11:14;;;;;;;0.30;0.30;;;20.70;1.00;;;;;;5059780;28;20198;-80
2022/07/13 07:13:40;;;;;;;0.33;0.33;;;20.90;1.00;;;;;;5059180;28;20312;-80
2022/07/13 07:16:06;;;;;;;0.20;0.20;;;21.00;1.00;;;;;;5058191;28;20205;-79
2022/07/13 07:18:31;;;;;;;0.30;0.30;;;21.10;1.00;;;;;;5044528;28;20572;-79
2022/07/13 07:20:57;;;;;;;0.30;0.30;;;21.40;99.90;;;;;;5046760;28;20183;-77
2022/07/13 07:23:22;;;;;;;0.30;0.30;;;21.60;99.90;;;;;;5038447;28;20692;-78
2022/07/13 07:25:48;;;;;;;0.30;0.30;;;21.70;99.90;;;;;;5036132;28;20184;-77
2022/07/13 07:28:13;;;;;;;0.23;0.23;;;21.70;99.90;;;;;;5034635;28;20214;-77
2022/07/13 07:30:39;;;;;;;0.30;0.30;;;21.70;99.90;;;;;;5034760;28;20255;-77
2022/07/13 07:33:04;;;;;;;0.30;0.30;;;21.60;99.90;;;;;;5035084;28;20214;-76
2022/07/13 07:35:30;;;;;;;0.20;0.20;;;21.60;99.90;;;;;;5034685;28;20176;-77
2022/07/13 07:37:56;;;;;;;0.30;0.30;;;21.60;99.90;;;;;;5035211;28;20202;-77
2022/07/13 07:40:21;;;;;;;0.30;0.30;;;21.90;99.90;;;;;;5035815;28;20171;-77
2022/07/13 07:42:47;;;;;;;0.30;0.30;;;22.40;99.90;;;;;;5036263;28;20462;-78
2022/07/13 07:45:13;;;;;;;0.20;0.20;;;22.50;1.00;;;;;;5035256;28;20588;-76
2022/07/13 07:47:39;;;;;;;0.30;0.30;;;22.80;1.00;;;;;;5035566;28;20203;-79
2022/07/13 07:50:06;;;;;;;0.30;0.30;;;23.10;1.00;;;;;;5036973;28;20302;-79
2022/07/13 07:52:32;;;;;;;0.40;0.40;;;23.30;1.00;;;;;;5038299;28;20328;-78
2022/07/13 07:54:58;;;;;;;0.30;0.30;;;23.70;1.00;;;;;;5049282;28;20171;-78
2022/07/13 07:57:23;;;;;;;0.30;0.30;;;24.00;1.00;;;;;;5059435;28;20263;-79
2022/07/13 07:59:49;;;;;;;0.27;0.27;;;24.10;1.00;;;;;;5057228;28;20198;-79
2022/07/13 08:02:14;;;;;;;0.30;0.30;;;24.60;1.00;;;;;;5057427;28;20222;-79
2022/07/13 08:04:40;;;;;;;0.30;0.30;;;25.10;1.00;;;;;;5054934;28;20178;-77
2022/07/13 08:07:07;;;;;;;0.30;0.30;;;25.80;1.00;;;;;;5048514;28;20582;-80
2022/07/13 08:09:33;;;;;;;0.30;0.30;;;26.30;1.00;;;;;;5043396;28;20180;-78
2022/07/13 08:12:00;;;;;;;0.30;0.30;;;26.70;1.00;;;;;;5034476;28;20199;-77
2022/07/13 08:14:26;;;;;;;0.30;0.30;;;27.10;1.00;;;;;;5034403;28;20188;-78
2022/07/13 08:16:51;;;;;;;0.37;0.37;;;27.40;1.00;;;;;;5033155;28;20731;-78
2022/07/13 08:19:17;;;;;;;0.40;0.40;;;27.40;1.00;;;;;;5033907;28;20178;-78
2022/07/13 08:21:43;;;;;;;0.33;0.33;;;27.80;1.00;;;;;;5033559;28;20551;-77
2022/07/13 08:24:09;;;;;;;0.30;0.30;;;28.40;1.00;;;;;;5033290;28;20183;-78
2022/07/13 08:26:35;;;;;;;0.30;0.30;;;28.30;1.00;;;;;;5036059;28;20183;-76
2022/07/13 08:29:00;;;;;;;0.50;0.50;;;28.00;1.00;;;;;;5034007;28;20212;-77
2022/07/13 08:31:26;;;;;;;0.40;0.40;;;27.90;1.00;;;;;;5035279;28;20214;-81
2022/07/13 08:39:22;;;;;;;0.40;0.40;;;27.30;1.00;;;;;;5031513;28;20258;-77
2022/07/13 08:41:48;;;;;;;0.40;0.40;;;27.30;1.00;;;;;;5029573;28;20666;-76
2022/07/13 08:44:14;;;;;;;0.40;0.40;;;27.30;1.00;;;;;;5032665;28;20695;-77
2022/07/13 08:46:40;;;;;;;0.50;0.50;;;27.10;1.00;;;;;;5032687;28;20172;-77
2022/07/13 08:49:06;;;;;;;0.50;0.50;;;26.90;1.00;;;;;;5032438;28;20215;-76
2022/07/13 08:51:32;;;;;;;0.33;0.33;;;26.70;1.00;;;;;;5032543;28;20168;-77
2022/07/13 08:54:00;;;;;;;0.40;0.40;;;26.50;1.00;;;;;;5032862;28;20190;-77
2022/07/13 08:56:25;;;;;;;0.40;0.40;;;26.60;1.00;;;;;;5033073;28;20175;-78
2022/07/13 08:58:54;;;;;;;0.50;0.50;;;26.80;1.00;;;;;;5031576;28;20556;-77
2022/07/13 09:01:20;;;;;;;0.47;0.47;;;27.10;1.00;;;;;;5032452;28;20717;-77
2022/07/13 09:03:46;;;;;;;0.40;0.40;;;27.40;1.00;;;;;;5032023;28;20199;-77
2022/07/13 09:06:38;;;;;;;0.50;0.50;;;27.70;1.00;;;;;;5032299;28;20225;-77
2022/07/13 09:09:03;;;;;;;0.40;0.40;;;28.00;1.00;;;;;;5023528;28;20692;-77
2022/07/13 09:11:29;;;;;;;0.60;0.60;;;28.20;1.00;;;;;;5032355;28;20202;-79
2022/07/13 09:13:56;;;;;;;0.60;0.60;;;28.70;1.00;;;;;;5032736;28;20168;-78
2022/07/13 09:16:24;;;;;;;0.60;0.60;;;29.30;1.00;;;;;;5031930;28;20195;-78
2022/07/13 09:18:52;;;;;;;0.57;0.57;;;29.30;1.00;;;;;;5031550;28;20186;-78
2022/07/13 09:21:19;;;;;;;0.60;0.60;;;29.10;1.00;;;;;;5031628;28;20168;-77
2022/07/13 09:23:57;;;;;;;0.60;0.60;;;29.00;1.00;;;;;;5031750;28;20204;-78
2022/07/13 09:26:38;;;;;;;0.60;0.60;;;29.30;1.00;;;;;;5031762;28;20175;-77
2022/07/13 09:29:05;;;;;;;0.50;0.50;;;29.60;1.00;;;;;;5030357;28;20206;-77
2022/07/13 09:31:31;;;;;;;0.70;0.70;;;29.70;1.00;;;;;;5029055;28;20175;-77
2022/07/13 09:33:56;;;;;;;0.50;0.50;;;29.40;1.00;;;;;;5031651;28;20552;-77
2022/07/13 09:36:23;;;;;;;0.40;0.40;;;29.50;1.00;;;;;;5031498;28;20182;-77
2022/07/13 09:38:52;;;;;;;0.50;0.50;;;30.00;1.00;;;;;;5031567;28;20619;-78
2022/07/13 09:41:20;;;;;;;0.50;0.50;;;30.30;1.00;;;;;;5021518;28;20640;-76
2022/07/13 09:47:01;;;;;;;0.50;0.50;;;30.90;1.00;;;;;;5045305;28;20201;-76
2022/07/13 09:49:41;;;;;;;0.60;0.60;;;30.40;1.00;;;;;;5047256;28;20246;-78
2022/07/13 09:52:09;;;;;;;0.50;0.50;;;30.80;1.00;;;;;;5030656;28;20214;-75
2022/07/13 09:54:38;;;;;;;0.55;0.55;;;31.10;1.00;;;;;;5030525;28;20204;-77
2022/07/13 09:57:07;;;;;;;0.45;0.45;;;31.40;1.00;;;;;;5031186;28;20562;-77
2022/07/13 09:59:35;;;;;;;0.40;0.40;;;31.60;1.00;;;;;;5028111;28;20652;-77
2022/07/13 10:02:02;;;;;;;0.57;0.57;;;31.90;1.00;;;;;;5028870;28;20199;-78
2022/07/13 10:04:27;;;;;;;0.52;0.52;;;31.60;1.00;;;;;;5030522;28;20676;-76
2022/07/13 10:06:53;;;;;;;0.50;0.50;;;31.70;1.00;;;;;;5031098;28;20176;-76
2022/07/13 10:09:28;;;;;;;0.60;0.60;;;32.00;1.00;;;;;;5030928;28;20211;-76
2022/07/13 10:11:54;;;;;;;0.55;0.55;;;32.30;1.00;;;;;;5028420;28;20764;-77
2022/07/13 10:14:20;;;;;;;0.55;0.55;;;32.60;1.00;;;;;;5030479;28;20318;-76
2022/07/13 10:16:46;;;;;;;0.60;0.60;;;32.90;1.00;;;;;;5031326;28;20181;-76
2022/07/13 10:19:12;;;;;;;0.50;0.50;;;33.00;1.00;;;;;;5030487;28;20177;-76
2022/07/13 10:22:01;;;;;;;0.60;0.60;;;32.80;1.00;;;;;;5029879;28;20168;-76
2022/07/13 10:24:30;;;;;;;0.40;0.40;;;32.80;1.00;;;;;;5015552;28;20677;-75
2022/07/13 10:27:21;;;;;;;0.47;0.47;;;32.90;1.00;;;;;;5031344;28;20187;-75
2022/07/13 10:29:50;;;;;;;0.50;0.50;;;32.40;1.00;;;;;;5031059;28;20180;-75
2022/07/13 10:32:20;;;;;;;0.60;0.60;;;32.20;1.00;;;;;;5027692;28;20211;-75
2022/07/13 10:34:56;;;;;;;0.45;0.45;;;32.30;1.00;;;;;;5030634;28;20181;-75
2022/07/13 10:37:23;;;;;;;0.60;0.60;;;31.70;1.00;;;;;;5030969;28;20187;-76
2022/07/13 10:40:10;;;;;;;0.60;0.60;;;31.70;1.00;;;;;;5030750;28;20176;-77
2022/07/13 10:42:53;;;;;;;0.60;0.60;;;32.00;1.00;;;;;;5027933;28;20250;-76
2022/07/13 10:45:35;;;;;;;0.50;0.50;;;31.80;1.00;;;;;;5030508;28;20183;-77
2022/07/13 10:48:04;;;;;;;0.65;0.65;;;31.80;1.00;;;;;;5030991;28;20708;-77
2022/07/13 10:50:38;;;;;;;0.60;0.60;;;32.00;1.00;;;;;;5030663;28;20180;-77
2022/07/13 10:53:04;;;;;;;0.57;0.57;;;32.00;1.00;;;;;;5028224;28;20210;-75
2022/07/13 10:55:31;;;;;;;0.60;0.60;;;32.00;1.00;;;;;;5033273;28;20313;-75
2022/07/13 10:57:57;;;;;;;0.60;0.60;;;32.20;1.00;;;;;;5034619;28;20168;-76
2022/07/13 11:00:40;;;;;;;0.40;0.40;;;32.30;1.00;;;;;;5034363;28;20311;-75
2022/07/13 11:03:37;;;;;;;0.50;0.50;;;32.50;1.00;;;;;;5031150;28;20602;-75
2022/07/13 11:06:07;;;;;;;0.50;0.50;;;32.40;1.00;;;;;;5033667;28;20176;-75
2022/07/13 11:08:33;;;;;;;0.60;0.60;;;32.30;1.00;;;;;;5034539;28;20238;-76
2022/07/13 11:11:11;;;;;;;0.70;0.70;;;32.50;1.00;;;;;;5033188;28;20195;-76
2022/07/13 11:13:36;;;;;;;0.52;0.52;;;32.40;1.00;;;;;;5033792;28;20295;-76
2022/07/13 11:16:02;;;;;;;0.60;0.60;;;32.50;1.00;;;;;;5036941;28;20286;-77
2022/07/13 11:18:31;;;;;;;0.60;0.60;;;32.80;1.00;;;;;;5046042;28;20187;-77
2022/07/13 11:21:01;;;;;;;0.60;0.60;;;33.00;1.00;;;;;;5038195;28;20175;-77
2022/07/13 11:26:23;;;;;;;0.60;0.60;;;33.50;1.00;;;;;;5030339;28;20230;-76
2022/07/13 11:29:10;;;;;;;0.55;0.55;;;33.50;1.00;;;;;;5034352;28;20261;-76
2022/07/13 11:31:36;;;;;;;0.50;0.50;;;33.20;1.00;;;;;;5032890;28;20164;-76
2022/07/13 11:34:01;;;;;;;0.60;0.60;;;32.70;1.00;;;;;;5033008;28;20184;-77
2022/07/13 11:36:28;;;;;;;0.60;0.60;;;32.80;1.00;;;;;;5033936;28;20645;-78
2022/07/13 11:38:53;;;;;;;0.60;0.60;;;32.70;1.00;;;;;;5040718;28;20614;-80
2022/07/13 11:41:20;;;;;;;0.60;0.60;;;32.40;1.00;;;;;;5042202;28;20677;-77
2022/07/13 11:43:50;;;;;;;0.50;0.50;;;32.10;1.00;;;;;;5030038;28;20227;-78
2022/07/13 11:46:27;;;;;;;0.70;0.70;;;32.00;1.00;;;;;;5031825;28;20175;-79
2022/07/13 11:49:04;;;;;;;0.40;0.40;;;31.90;1.00;;;;;;5030592;28;20298;-77
2022/07/13 11:51:29;;;;;;;0.50;0.50;;;31.80;1.00;;;;;;5030529;28;20183;-79
2022/07/13 11:53:55;;;;;;;0.60;0.60;;;31.90;1.00;;;;;;5031020;28;20556;-78
2022/07/13 11:56:22;;;;;;;0.50;0.50;;;32.50;1.00;;;;;;5031128;28;20190;-81
2022/07/13 11:58:48;;;;;;;0.52;0.52;;;33.30;1.00;;;;;;5030172;28;20215;-78
2022/07/13 12:01:16;;;;;;;0.32;0.32;;;33.80;1.00;;;;;;5030750;28;20181;-78
2022/07/13 12:03:48;;;;;;;0.50;0.50;;;34.20;1.00;;;;;;5030069;28;20216;-77
2022/07/13 12:06:13;;;;;;;0.40;0.40;;;34.10;1.00;;;;;;5030578;28;20183;-79
2022/07/13 12:08:41;;;;;;;0.45;0.45;;;34.10;1.00;;;;;;5029863;28;20218;-78
2022/07/13 12:11:10;;;;;;;0.45;0.45;;;34.20;1.00;;;;;;5030286;28;20653;-78
2022/07/13 12:13:38;;;;;;;0.40;0.40;;;34.30;1.00;;;;;;5030543;28;20230;-79
2022/07/13 12:16:05;;;;;;;0.30;0.30;;;34.20;1.00;;;;;;5032341;28;20176;-78
2022/07/13 12:18:31;;;;;;;0.30;0.30;;;34.20;1.00;;;;;;5031528;28;20181;-79
2022/07/13 12:20:58;;;;;;;0.40;0.40;;;34.20;1.00;;;;;;5031705;28;20815;-79
2022/07/13 12:23:26;;;;;;;0.25;0.25;;;34.40;1.00;;;;;;5032577;28;20205;-84
2022/07/13 12:26:05;;;;;;;0.30;0.30;;;34.60;1.00;;;;;;5031890;28;20230;-80
2022/07/13 12:28:31;;;;;;;0.30;0.30;;;34.60;1.00;;;;;;5030797;28;20925;-80
2022/07/13 12:31:01;;;;;;;0.40;0.40;;;34.60;1.00;;;;;;5031632;28;20248;-79
2022/07/13 12:33:43;;;;;;;0.20;0.20;;;34.60;1.00;;;;;;5030972;28;20676;-81
2022/07/13 12:36:09;;;;;;;0.28;0.28;;;34.50;1.00;;;;;;5031276;28;20193;-78
2022/07/13 12:38:35;;;;;;;0.20;0.20;;;34.90;1.00;;;;;;5029942;28;20253;-79
2022/07/13 12:41:03;;;;;;;0.20;0.20;;;35.00;1.00;;;;;;5030248;28;20186;-78
2022/07/13 12:43:31;;;;;;;0.30;0.30;;;35.10;1.00;;;;;;5031182;28;20204;-83
2022/07/13 12:46:01;;;;;;;0.40;0.40;;;35.00;1.00;;;;;;5031784;28;20931;-77
2022/07/13 12:48:31;;;;;;;0.20;0.20;;;34.80;1.00;;;;;;5027804;28;20224;-84
2022/07/13 12:51:05;;;;;;;0.22;0.22;;;34.50;1.00;;;;;;5030528;28;20187;-80
2022/07/13 12:53:51;;;;;;;0.20;0.20;;;34.40;1.00;;;;;;5030137;28;20278;-77
2022/07/13 12:56:19;;;;;;;0.32;0.32;;;34.30;1.00;;;;;;5030606;28;20262;-78
2022/07/13 12:58:49;;;;;;;0.40;0.40;;;33.70;1.00;;;;;;5029127;28;20186;-77
2022/07/13 13:01:34;;;;;;;0.32;0.32;;;33.40;1.00;;;;;;5030175;28;20186;-77
2022/07/13 13:04:02;;;;;;;0.40;0.40;;;33.50;1.00;;;;;;5029255;28;20192;-80
2022/07/13 13:06:27;;;;;;;0.40;0.40;;;33.60;1.00;;;;;;5029252;28;20183;-79